sensor_id;sensor_type;location;lat;lon;timestamp;temperature;humidity
31677;DHT22;18385;51.572;6.578;2023-02-15T00:01:11;7.20;65.20
31677;DHT22;18385;51.572;6.578;2023-02-15T00:03:37;7.10;65.10
31677;DHT22;18385;51.572;6.578;2023-02-15T00:06:03;7.10;65.00
31677;DHT22;18385;51.572;6.578;2023-02-15T00:08:29;7.10;65.20
31677;DHT22;18385;51.572;6.578;2023-02-15T00:11:10;7.00;65.20
31677;DHT22;18385;51.572;6.578;2023-02-15T00:13:36;7.00;65.30
31677;DHT22;18385;51.572;6.578;2023-02-15T00:16:05;6.90;65.30
31677;DHT22;18385;51.572;6.578;2023-02-15T00:18:31;6.90;65.30
31677;DHT22;18385;51.572;6.578;2023-02-15T00:20:58;6.90;65.40
31677;DHT22;18385;51.572;6.578;2023-02-15T00:23:24;6.90;65.40
31677;DHT22;18385;51.572;6.578;2023-02-15T00:25:49;6.90;65.60
31677;DHT22;18385;51.572;6.578;2023-02-15T00:28:15;7.00;65.50
31677;DHT22;18385;51.572;6.578;2023-02-15T00:30:41;7.00;65.50
31677;DHT22;18385;51.572;6.578;2023-02-15T00:33:07;6.90;65.40
31677;DHT22;18385;51.572;6.578;2023-02-15T00:35:32;6.90;65.40
31677;DHT22;18385;51.572;6.578;2023-02-15T00:37:58;6.90;65.40
31677;DHT22;18385;51.572;6.578;2023-02-15T00:40:24;6.80;65.50
31677;DHT22;18385;51.572;6.578;2023-02-15T00:42:49;6.80;65.50
31677;DHT22;18385;51.572;6.578;2023-02-15T00:45:15;6.80;65.60
31677;DHT22;18385;51.572;6.578;2023-02-15T00:47:41;6.70;65.70
31677;DHT22;18385;51.572;6.578;2023-02-15T00:50:06;6.70;65.70
31677;DHT22;18385;51.572;6.578;2023-02-15T00:52:32;6.70;65.60
31677;DHT22;18385;51.572;6.578;2023-02-15T00:54:58;6.60;65.60
31677;DHT22;18385;51.572;6.578;2023-02-15T00:57:23;6.60;65.70
31677;DHT22;18385;51.572;6.578;2023-02-15T00:59:49;6.50;65.70
31677;DHT22;18385;51.572;6.578;2023-02-15T01:02:15;6.50;65.90
31677;DHT22;18385;51.572;6.578;2023-02-15T01:04:40;6.50;66.00
31677;DHT22;18385;51.572;6.578;2023-02-15T01:07:06;6.50;66.00
31677;DHT22;18385;51.572;6.578;2023-02-15T01:09:32;6.50;66.10
31677;DHT22;18385;51.572;6.578;2023-02-15T01:11:58;6.50;66.00
31677;DHT22;18385;51.572;6.578;2023-02-15T01:14:25;6.50;65.90
31677;DHT22;18385;51.572;6.578;2023-02-15T01:16:51;6.50;66.00
31677;DHT22;18385;51.572;6.578;2023-02-15T01:19:17;6.40;66.00
31677;DHT22;18385;51.572;6.578;2023-02-15T01:21:42;6.40;66.00
31677;DHT22;18385;51.572;6.578;2023-02-15T01:24:15;6.40;66.10
31677;DHT22;18385;51.572;6.578;2023-02-15T01:26:41;6.40;66.20
31677;DHT22;18385;51.572;6.578;2023-02-15T01:29:06;6.40;66.30
31677;DHT22;18385;51.572;6.578;2023-02-15T01:31:32;6.40;66.20
31677;DHT22;18385;51.572;6.578;2023-02-15T01:33:58;6.40;66.20
31677;DHT22;18385;51.572;6.578;2023-02-15T01:36:23;6.40;66.20
31677;DHT22;18385;51.572;6.578;2023-02-15T01:38:51;6.30;66.10
31677;DHT22;18385;51.572;6.578;2023-02-15T01:41:16;6.30;66.10
31677;DHT22;18385;51.572;6.578;2023-02-15T01:43:57;6.30;66.10
31677;DHT22;18385;51.572;6.578;2023-02-15T01:46:37;6.20;66.30
31677;DHT22;18385;51.572;6.578;2023-02-15T01:49:07;6.20;66.40
31677;DHT22;18385;51.572;6.578;2023-02-15T01:51:35;6.20;66.40
31677;DHT22;18385;51.572;6.578;2023-02-15T01:54:23;6.10;66.30
31677;DHT22;18385;51.572;6.578;2023-02-15T01:56:53;6.20;66.40
31677;DHT22;18385;51.572;6.578;2023-02-15T01:59:22;6.10;66.40
31677;DHT22;18385;51.572;6.578;2023-02-15T02:01:51;6.10;66.50
31677;DHT22;18385;51.572;6.578;2023-02-15T02:04:29;6.10;66.50
31677;DHT22;18385;51.572;6.578;2023-02-15T02:06:57;6.10;66.50
31677;DHT22;18385;51.572;6.578;2023-02-15T02:09:24;6.10;66.50
31677;DHT22;18385;51.572;6.578;2023-02-15T02:11:50;6.10;66.50
31677;DHT22;18385;51.572;6.578;2023-02-15T02:14:16;6.10;66.50
31677;DHT22;18385;51.572;6.578;2023-02-15T02:20:15;6.10;66.60
31677;DHT22;18385;51.572;6.578;2023-02-15T02:37:35;5.90;66.80
31677;DHT22;18385;51.572;6.578;2023-02-15T02:45:20;6.00;66.80
31677;DHT22;18385;51.572;6.578;2023-02-15T02:50:22;5.90;66.70
31677;DHT22;18385;51.572;6.578;2023-02-15T02:52:52;5.90;66.80
31677;DHT22;18385;51.572;6.578;2023-02-15T02:55:31;5.80;66.80
31677;DHT22;18385;51.572;6.578;2023-02-15T02:58:29;5.80;66.90
31677;DHT22;18385;51.572;6.578;2023-02-15T03:01:01;5.80;67.00
31677;DHT22;18385;51.572;6.578;2023-02-15T03:03:47;5.80;67.00
31677;DHT22;18385;51.572;6.578;2023-02-15T03:06:39;5.80;67.80
31677;DHT22;18385;51.572;6.578;2023-02-15T03:09:27;5.70;67.00
31677;DHT22;18385;51.572;6.578;2023-02-15T03:12:16;5.70;67.00
31677;DHT22;18385;51.572;6.578;2023-02-15T03:14:48;5.70;67.10
31677;DHT22;18385;51.572;6.578;2023-02-15T03:17:19;5.60;67.10
31677;DHT22;18385;51.572;6.578;2023-02-15T03:19:46;5.60;67.20
31677;DHT22;18385;51.572;6.578;2023-02-15T03:22:20;5.70;67.20
31677;DHT22;18385;51.572;6.578;2023-02-15T03:25:04;5.70;67.20
31677;DHT22;18385;51.572;6.578;2023-02-15T03:27:35;5.80;67.30
31677;DHT22;18385;51.572;6.578;2023-02-15T03:30:04;5.80;67.30
31677;DHT22;18385;51.572;6.578;2023-02-15T03:32:32;5.80;67.20
31677;DHT22;18385;51.572;6.578;2023-02-15T03:34:58;5.80;67.10
31677;DHT22;18385;51.572;6.578;2023-02-15T03:37:39;5.80;67.10
31677;DHT22;18385;51.572;6.578;2023-02-15T03:40:33;5.80;67.10
31677;DHT22;18385;51.572;6.578;2023-02-15T03:43:35;5.70;67.10
31677;DHT22;18385;51.572;6.578;2023-02-15T03:46:14;5.60;67.20
31677;DHT22;18385;51.572;6.578;2023-02-15T03:48:45;5.60;67.30
31677;DHT22;18385;51.572;6.578;2023-02-15T03:51:16;5.60;67.40
31677;DHT22;18385;51.572;6.578;2023-02-15T03:54:23;5.60;67.40
31677;DHT22;18385;51.572;6.578;2023-02-15T03:57:10;5.50;67.30
31677;DHT22;18385;51.572;6.578;2023-02-15T03:59:55;5.50;68.20
31677;DHT22;18385;51.572;6.578;2023-02-15T04:05:17;5.40;67.50
31677;DHT22;18385;51.572;6.578;2023-02-15T04:07:43;5.40;67.50
31677;DHT22;18385;51.572;6.578;2023-02-15T04:10:09;5.40;67.60
31677;DHT22;18385;51.572;6.578;2023-02-15T04:12:53;5.50;68.30
31677;DHT22;18385;51.572;6.578;2023-02-15T04:15:19;5.50;67.60
31677;DHT22;18385;51.572;6.578;2023-02-15T04:18:03;5.40;67.50
31677;DHT22;18385;51.572;6.578;2023-02-15T04:20:29;5.40;67.50
31677;DHT22;18385;51.572;6.578;2023-02-15T04:23:13;5.40;67.50
31677;DHT22;18385;51.572;6.578;2023-02-15T04:25:58;5.40;67.60
31677;DHT22;18385;51.572;6.578;2023-02-15T04:28:23;5.40;67.60
31677;DHT22;18385;51.572;6.578;2023-02-15T04:30:49;5.40;67.70
31677;DHT22;18385;51.572;6.578;2023-02-15T04:33:15;5.40;67.70
31677;DHT22;18385;51.572;6.578;2023-02-15T04:35:40;5.40;67.80
31677;DHT22;18385;51.572;6.578;2023-02-15T04:38:10;5.40;67.70
31677;DHT22;18385;51.572;6.578;2023-02-15T04:40:35;5.40;67.70
31677;DHT22;18385;51.572;6.578;2023-02-15T04:43:01;5.40;67.80
31677;DHT22;18385;51.572;6.578;2023-02-15T04:45:27;5.40;67.70
31677;DHT22;18385;51.572;6.578;2023-02-15T04:47:53;5.40;67.70
31677;DHT22;18385;51.572;6.578;2023-02-15T04:50:18;5.40;67.70
31677;DHT22;18385;51.572;6.578;2023-02-15T04:52:44;5.40;67.70
31677;DHT22;18385;51.572;6.578;2023-02-15T04:55:10;5.40;67.70
31677;DHT22;18385;51.572;6.578;2023-02-15T04:57:35;5.40;67.80
31677;DHT22;18385;51.572;6.578;2023-02-15T05:00:01;5.40;67.70
31677;DHT22;18385;51.572;6.578;2023-02-15T05:02:28;5.30;67.70
31677;DHT22;18385;51.572;6.578;2023-02-15T05:04:53;5.30;67.90
31677;DHT22;18385;51.572;6.578;2023-02-15T05:07:19;5.30;68.00
31677;DHT22;18385;51.572;6.578;2023-02-15T05:09:45;5.30;68.10
31677;DHT22;18385;51.572;6.578;2023-02-15T05:12:11;5.30;68.00
31677;DHT22;18385;51.572;6.578;2023-02-15T05:14:37;5.30;68.00
31677;DHT22;18385;51.572;6.578;2023-02-15T05:17:02;5.30;68.20
31677;DHT22;18385;51.572;6.578;2023-02-15T05:19:30;5.30;68.10
31677;DHT22;18385;51.572;6.578;2023-02-15T05:21:56;5.30;68.10
31677;DHT22;18385;51.572;6.578;2023-02-15T05:24:21;5.30;68.10
31677;DHT22;18385;51.572;6.578;2023-02-15T05:27:06;5.30;68.10
31677;DHT22;18385;51.572;6.578;2023-02-15T05:29:50;5.20;68.10
31677;DHT22;18385;51.572;6.578;2023-02-15T05:32:16;5.20;68.20
31677;DHT22;18385;51.572;6.578;2023-02-15T05:34:42;5.20;68.20
31677;DHT22;18385;51.572;6.578;2023-02-15T05:37:07;5.20;68.30
31677;DHT22;18385;51.572;6.578;2023-02-15T05:39:33;5.20;68.30
31677;DHT22;18385;51.572;6.578;2023-02-15T05:42:00;5.20;68.20
31677;DHT22;18385;51.572;6.578;2023-02-15T05:44:25;5.20;68.40
31677;DHT22;18385;51.572;6.578;2023-02-15T05:46:51;5.20;68.20
31677;DHT22;18385;51.572;6.578;2023-02-15T05:49:16;5.20;68.30
31677;DHT22;18385;51.572;6.578;2023-02-15T05:51:42;5.20;68.40
31677;DHT22;18385;51.572;6.578;2023-02-15T05:54:08;5.20;68.40
31677;DHT22;18385;51.572;6.578;2023-02-15T05:56:33;5.20;68.30
31677;DHT22;18385;51.572;6.578;2023-02-15T05:58:59;5.20;68.30
31677;DHT22;18385;51.572;6.578;2023-02-15T06:01:25;5.10;68.20
31677;DHT22;18385;51.572;6.578;2023-02-15T06:03:50;5.10;68.20
31677;DHT22;18385;51.572;6.578;2023-02-15T06:06:17;5.10;68.30
31677;DHT22;18385;51.572;6.578;2023-02-15T06:08:43;5.10;68.40
31677;DHT22;18385;51.572;6.578;2023-02-15T06:11:09;5.10;68.60
31677;DHT22;18385;51.572;6.578;2023-02-15T06:13:35;5.10;68.60
31677;DHT22;18385;51.572;6.578;2023-02-15T06:16:01;5.10;68.50
31677;DHT22;18385;51.572;6.578;2023-02-15T06:18:26;5.20;68.50
31677;DHT22;18385;51.572;6.578;2023-02-15T06:20:52;5.20;68.40
31677;DHT22;18385;51.572;6.578;2023-02-15T06:23:18;5.10;68.40
31677;DHT22;18385;51.572;6.578;2023-02-15T06:25:45;5.10;68.40
31677;DHT22;18385;51.572;6.578;2023-02-15T06:28:11;5.10;68.40
31677;DHT22;18385;51.572;6.578;2023-02-15T06:30:36;5.10;68.50
31677;DHT22;18385;51.572;6.578;2023-02-15T06:33:02;5.10;68.60
31677;DHT22;18385;51.572;6.578;2023-02-15T06:35:28;5.10;68.60
31677;DHT22;18385;51.572;6.578;2023-02-15T06:37:53;5.10;68.60
31677;DHT22;18385;51.572;6.578;2023-02-15T06:40:19;5.10;68.60
31677;DHT22;18385;51.572;6.578;2023-02-15T06:42:45;5.10;68.60
31677;DHT22;18385;51.572;6.578;2023-02-15T06:45:11;5.10;68.70
31677;DHT22;18385;51.572;6.578;2023-02-15T06:47:37;5.10;68.60
31677;DHT22;18385;51.572;6.578;2023-02-15T06:50:04;5.10;68.60
31677;DHT22;18385;51.572;6.578;2023-02-15T06:52:30;5.10;68.70
31677;DHT22;18385;51.572;6.578;2023-02-15T06:54:56;5.10;68.60
31677;DHT22;18385;51.572;6.578;2023-02-15T06:57:22;5.10;68.60
31677;DHT22;18385;51.572;6.578;2023-02-15T06:59:47;5.10;68.60
31677;DHT22;18385;51.572;6.578;2023-02-15T07:02:14;5.10;68.70
31677;DHT22;18385;51.572;6.578;2023-02-15T07:04:39;5.10;68.70
31677;DHT22;18385;51.572;6.578;2023-02-15T07:07:09;5.20;68.70
31677;DHT22;18385;51.572;6.578;2023-02-15T07:09:35;5.20;68.80
31677;DHT22;18385;51.572;6.578;2023-02-15T07:12:02;5.20;68.70
31677;DHT22;18385;51.572;6.578;2023-02-15T07:14:46;5.20;68.60
31677;DHT22;18385;51.572;6.578;2023-02-15T07:17:12;5.20;68.60
31677;DHT22;18385;51.572;6.578;2023-02-15T07:19:37;5.20;68.70
31677;DHT22;18385;51.572;6.578;2023-02-15T07:22:03;5.30;68.80
31677;DHT22;18385;51.572;6.578;2023-02-15T07:24:30;5.30;68.80
31677;DHT22;18385;51.572;6.578;2023-02-15T07:26:56;5.40;68.80
31677;DHT22;18385;51.572;6.578;2023-02-15T07:29:23;5.40;68.80
31677;DHT22;18385;51.572;6.578;2023-02-15T07:31:49;5.40;68.70
31677;DHT22;18385;51.572;6.578;2023-02-15T07:34:14;5.50;68.70
31677;DHT22;18385;51.572;6.578;2023-02-15T07:36:41;5.50;68.60
31677;DHT22;18385;51.572;6.578;2023-02-15T07:39:07;5.60;68.60
31677;DHT22;18385;51.572;6.578;2023-02-15T07:41:33;5.60;68.60
31677;DHT22;18385;51.572;6.578;2023-02-15T07:43:58;5.60;68.60
31677;DHT22;18385;51.572;6.578;2023-02-15T07:46:24;5.70;68.70
31677;DHT22;18385;51.572;6.578;2023-02-15T07:48:50;5.80;68.70
31677;DHT22;18385;51.572;6.578;2023-02-15T07:51:15;5.80;68.60
31677;DHT22;18385;51.572;6.578;2023-02-15T07:53:42;5.90;68.60
31677;DHT22;18385;51.572;6.578;2023-02-15T07:56:11;6.00;68.60
31677;DHT22;18385;51.572;6.578;2023-02-15T07:58:38;6.10;68.60
31677;DHT22;18385;51.572;6.578;2023-02-15T08:01:21;6.10;68.50
31677;DHT22;18385;51.572;6.578;2023-02-15T08:03:47;6.20;68.40
31677;DHT22;18385;51.572;6.578;2023-02-15T08:06:13;6.20;68.40
31677;DHT22;18385;51.572;6.578;2023-02-15T08:08:39;6.30;68.40
31677;DHT22;18385;51.572;6.578;2023-02-15T08:11:20;6.30;68.30
31677;DHT22;18385;51.572;6.578;2023-02-15T08:14:12;6.40;68.30
31677;DHT22;18385;51.572;6.578;2023-02-15T08:16:52;6.50;68.30
31677;DHT22;18385;51.572;6.578;2023-02-15T08:19:18;6.50;68.20
31677;DHT22;18385;51.572;6.578;2023-02-15T08:21:47;6.60;68.20
31677;DHT22;18385;51.572;6.578;2023-02-15T08:24:15;6.70;68.20
31677;DHT22;18385;51.572;6.578;2023-02-15T08:26:41;6.80;68.20
31677;DHT22;18385;51.572;6.578;2023-02-15T08:29:08;6.80;68.00
31677;DHT22;18385;51.572;6.578;2023-02-15T08:31:35;6.90;67.90
31677;DHT22;18385;51.572;6.578;2023-02-15T08:34:03;7.00;67.90
31677;DHT22;18385;51.572;6.578;2023-02-15T08:36:30;7.10;67.90
31677;DHT22;18385;51.572;6.578;2023-02-15T08:39:01;7.10;67.80
31677;DHT22;18385;51.572;6.578;2023-02-15T08:41:29;7.20;67.80
31677;DHT22;18385;51.572;6.578;2023-02-15T08:43:57;7.30;67.70
31677;DHT22;18385;51.572;6.578;2023-02-15T08:46:26;7.40;67.60
31677;DHT22;18385;51.572;6.578;2023-02-15T08:48:52;7.50;67.60
31677;DHT22;18385;51.572;6.578;2023-02-15T08:51:20;7.60;67.50
31677;DHT22;18385;51.572;6.578;2023-02-15T08:53:48;7.60;67.40
31677;DHT22;18385;51.572;6.578;2023-02-15T08:56:15;7.70;67.40
31677;DHT22;18385;51.572;6.578;2023-02-15T08:58:41;7.80;67.20
31677;DHT22;18385;51.572;6.578;2023-02-15T09:01:14;7.90;67.30
31677;DHT22;18385;51.572;6.578;2023-02-15T09:03:44;8.00;67.20
31677;DHT22;18385;51.572;6.578;2023-02-15T09:06:10;8.10;67.10
31677;DHT22;18385;51.572;6.578;2023-02-15T09:08:36;8.20;67.00
31677;DHT22;18385;51.572;6.578;2023-02-15T09:11:28;8.20;66.80
31677;DHT22;18385;51.572;6.578;2023-02-15T09:13:59;8.40;66.80
31677;DHT22;18385;51.572;6.578;2023-02-15T09:16:28;8.40;66.70
31677;DHT22;18385;51.572;6.578;2023-02-15T09:18:54;8.50;66.70
31677;DHT22;18385;51.572;6.578;2023-02-15T09:21:22;8.50;66.60
31677;DHT22;18385;51.572;6.578;2023-02-15T09:23:50;8.60;66.60
31677;DHT22;18385;51.572;6.578;2023-02-15T09:26:18;8.70;66.50
31677;DHT22;18385;51.572;6.578;2023-02-15T09:28:44;8.70;66.30
31677;DHT22;18385;51.572;6.578;2023-02-15T09:31:15;8.80;66.30
31677;DHT22;18385;51.572;6.578;2023-02-15T09:33:42;8.90;66.20
31677;DHT22;18385;51.572;6.578;2023-02-15T09:36:30;9.00;66.20
31677;DHT22;18385;51.572;6.578;2023-02-15T09:39:08;9.10;66.00
31677;DHT22;18385;51.572;6.578;2023-02-15T09:45:00;9.30;66.10
31677;DHT22;18385;51.572;6.578;2023-02-15T09:50:28;9.70;65.80
31677;DHT22;18385;51.572;6.578;2023-02-15T09:58:58;10.10;65.30
31677;DHT22;18385;51.572;6.578;2023-02-15T10:13:22;10.60;64.80
31677;DHT22;18385;51.572;6.578;2023-02-15T10:16:01;10.70;64.70
31677;DHT22;18385;51.572;6.578;2023-02-15T10:18:40;10.70;64.60
31677;DHT22;18385;51.572;6.578;2023-02-15T10:21:37;10.70;64.70
31677;DHT22;18385;51.572;6.578;2023-02-15T10:29:08;11.00;64.40
31677;DHT22;18385;51.572;6.578;2023-02-15T10:31:47;11.10;64.20
31677;DHT22;18385;51.572;6.578;2023-02-15T10:34:18;11.10;64.10
31677;DHT22;18385;51.572;6.578;2023-02-15T10:36:59;11.20;64.10
31677;DHT22;18385;51.572;6.578;2023-02-15T10:39:52;11.20;63.90
31677;DHT22;18385;51.572;6.578;2023-02-15T10:48:09;11.20;64.00
31677;DHT22;18385;51.572;6.578;2023-02-15T10:50:54;11.20;63.90
31677;DHT22;18385;51.572;6.578;2023-02-15T11:07:24;11.60;63.60
31677;DHT22;18385;51.572;6.578;2023-02-15T11:12:27;11.70;63.20
31677;DHT22;18385;51.572;6.578;2023-02-15T11:14:58;11.80;63.10
31677;DHT22;18385;51.572;6.578;2023-02-15T11:17:41;11.90;63.30
31677;DHT22;18385;51.572;6.578;2023-02-15T11:20:19;12.00;63.00
31677;DHT22;18385;51.572;6.578;2023-02-15T11:22:49;12.10;62.80
31677;DHT22;18385;51.572;6.578;2023-02-15T11:25:23;12.20;63.40
31677;DHT22;18385;51.572;6.578;2023-02-15T11:27:49;12.20;62.40
31677;DHT22;18385;51.572;6.578;2023-02-15T11:30:24;12.30;62.50
31677;DHT22;18385;51.572;6.578;2023-02-15T11:32:53;12.40;62.30
31677;DHT22;18385;51.572;6.578;2023-02-15T11:35:31;12.50;61.90
31677;DHT22;18385;51.572;6.578;2023-02-15T11:38:10;12.50;61.90
31677;DHT22;18385;51.572;6.578;2023-02-15T11:40:54;12.60;61.90
31677;DHT22;18385;51.572;6.578;2023-02-15T11:43:46;12.80;61.80
31677;DHT22;18385;51.572;6.578;2023-02-15T11:46:14;12.90;61.70
31677;DHT22;18385;51.572;6.578;2023-02-15T11:48:41;13.00;61.60
31677;DHT22;18385;51.572;6.578;2023-02-15T11:51:21;13.00;61.40
31677;DHT22;18385;51.572;6.578;2023-02-15T11:53:49;13.10;61.10
31677;DHT22;18385;51.572;6.578;2023-02-15T11:56:22;13.10;61.20
31677;DHT22;18385;51.572;6.578;2023-02-15T11:59:06;13.10;61.00
31677;DHT22;18385;51.572;6.578;2023-02-15T12:01:43;13.10;61.00
31677;DHT22;18385;51.572;6.578;2023-02-15T12:06:53;13.20;60.80
31677;DHT22;18385;51.572;6.578;2023-02-15T12:09:24;13.30;60.90
31677;DHT22;18385;51.572;6.578;2023-02-15T12:11:52;13.40;60.90
31677;DHT22;18385;51.572;6.578;2023-02-15T12:14:18;13.40;60.70
31677;DHT22;18385;51.572;6.578;2023-02-15T12:16:50;13.50;60.50
31677;DHT22;18385;51.572;6.578;2023-02-15T12:21:50;13.70;60.30
31677;DHT22;18385;51.572;6.578;2023-02-15T12:27:05;13.80;59.90
31677;DHT22;18385;51.572;6.578;2023-02-15T12:29:40;14.00;59.80
31677;DHT22;18385;51.572;6.578;2023-02-15T12:32:16;14.00;59.50
31677;DHT22;18385;51.572;6.578;2023-02-15T12:34:44;14.10;59.50
31677;DHT22;18385;51.572;6.578;2023-02-15T12:37:17;14.20;59.50
31677;DHT22;18385;51.572;6.578;2023-02-15T12:39:55;14.30;59.30
31677;DHT22;18385;51.572;6.578;2023-02-15T12:42:22;14.50;59.00
31677;DHT22;18385;51.572;6.578;2023-02-15T12:44:56;14.60;59.00
31677;DHT22;18385;51.572;6.578;2023-02-15T12:47:22;14.70;58.90
31677;DHT22;18385;51.572;6.578;2023-02-15T12:50:12;14.80;58.80
31677;DHT22;18385;51.572;6.578;2023-02-15T12:52:50;14.90;58.60
31677;DHT22;18385;51.572;6.578;2023-02-15T12:55:27;15.00;58.40
31677;DHT22;18385;51.572;6.578;2023-02-15T12:58:05;15.10;58.40
31677;DHT22;18385;51.572;6.578;2023-02-15T13:00:31;15.20;59.00
31677;DHT22;18385;51.572;6.578;2023-02-15T13:02:58;15.20;58.50
31677;DHT22;18385;51.572;6.578;2023-02-15T13:05:39;15.40;58.30
31677;DHT22;18385;51.572;6.578;2023-02-15T13:08:17;15.40;57.90
31677;DHT22;18385;51.572;6.578;2023-02-15T13:13:50;15.60;57.70
31677;DHT22;18385;51.572;6.578;2023-02-15T13:16:30;15.60;57.50
31677;DHT22;18385;51.572;6.578;2023-02-15T13:19:00;15.60;57.50
31677;DHT22;18385;51.572;6.578;2023-02-15T13:21:32;15.60;57.50
31677;DHT22;18385;51.572;6.578;2023-02-15T13:24:56;15.60;57.30
31677;DHT22;18385;51.572;6.578;2023-02-15T13:27:17;15.70;57.40
31677;DHT22;18385;51.572;6.578;2023-02-15T13:29:49;15.60;57.30
31677;DHT22;18385;51.572;6.578;2023-02-15T13:34:57;15.80;57.20
31677;DHT22;18385;51.572;6.578;2023-02-15T13:42:59;16.10;56.60
31677;DHT22;18385;51.572;6.578;2023-02-15T13:48:03;16.20;56.70
31677;DHT22;18385;51.572;6.578;2023-02-15T14:01:35;16.90;56.00
31677;DHT22;18385;51.572;6.578;2023-02-15T14:07:07;18.00;56.80
31677;DHT22;18385;51.572;6.578;2023-02-15T14:09:47;18.50;56.00
31677;DHT22;18385;51.572;6.578;2023-02-15T14:19:58;18.20;54.20
31677;DHT22;18385;51.572;6.578;2023-02-15T14:22:44;18.20;54.20
31677;DHT22;18385;51.572;6.578;2023-02-15T14:25:18;18.10;54.40
31677;DHT22;18385;51.572;6.578;2023-02-15T14:28:06;18.00;54.00
31677;DHT22;18385;51.572;6.578;2023-02-15T14:30:37;17.80;53.70
31677;DHT22;18385;51.572;6.578;2023-02-15T14:35:42;17.50;55.00
31677;DHT22;18385;51.572;6.578;2023-02-15T14:41:12;17.60;54.40
31677;DHT22;18385;51.572;6.578;2023-02-15T14:44:08;17.90;54.30
31677;DHT22;18385;51.572;6.578;2023-02-15T14:49:17;17.90;53.40
31677;DHT22;18385;51.572;6.578;2023-02-15T15:04:42;17.00;53.00
31677;DHT22;18385;51.572;6.578;2023-02-15T15:07:24;16.90;53.00
31677;DHT22;18385;51.572;6.578;2023-02-15T15:12:55;16.60;53.40
31677;DHT22;18385;51.572;6.578;2023-02-15T15:25:47;16.30;53.30
31677;DHT22;18385;51.572;6.578;2023-02-15T15:31:02;16.20;53.20
31677;DHT22;18385;51.572;6.578;2023-02-15T15:36:54;16.00;52.90
31677;DHT22;18385;51.572;6.578;2023-02-15T15:42:21;15.80;53.20
31677;DHT22;18385;51.572;6.578;2023-02-15T15:48:21;15.60;52.90
31677;DHT22;18385;51.572;6.578;2023-02-15T15:50:52;15.50;53.00
31677;DHT22;18385;51.572;6.578;2023-02-15T15:53:22;15.40;53.00
31677;DHT22;18385;51.572;6.578;2023-02-15T15:55:52;15.30;53.10
31677;DHT22;18385;51.572;6.578;2023-02-15T15:58:20;15.30;53.00
31677;DHT22;18385;51.572;6.578;2023-02-15T16:00:54;15.20;53.10
31677;DHT22;18385;51.572;6.578;2023-02-15T16:03:25;15.10;52.90
31677;DHT22;18385;51.572;6.578;2023-02-15T16:05:52;15.00;53.00
31677;DHT22;18385;51.572;6.578;2023-02-15T16:08:32;14.90;53.00
31677;DHT22;18385;51.572;6.578;2023-02-15T16:10:58;14.80;53.10
31677;DHT22;18385;51.572;6.578;2023-02-15T16:13:25;14.70;53.20
31677;DHT22;18385;51.572;6.578;2023-02-15T16:15:53;14.60;53.20
31677;DHT22;18385;51.572;6.578;2023-02-15T16:18:23;14.50;53.20
31677;DHT22;18385;51.572;6.578;2023-02-15T16:21:32;14.40;53.20
31677;DHT22;18385;51.572;6.578;2023-02-15T16:24:03;14.40;53.30
31677;DHT22;18385;51.572;6.578;2023-02-15T16:28:05;14.20;53.60
31677;DHT22;18385;51.572;6.578;2023-02-15T16:29:52;14.10;53.60
31677;DHT22;18385;51.572;6.578;2023-02-15T16:34:57;14.00;53.70
31677;DHT22;18385;51.572;6.578;2023-02-15T16:37:25;13.90;53.60
31677;DHT22;18385;51.572;6.578;2023-02-15T16:39:54;13.90;53.70
31677;DHT22;18385;51.572;6.578;2023-02-15T16:42:21;13.80;53.70
31677;DHT22;18385;51.572;6.578;2023-02-15T16:45:06;13.80;53.70
31677;DHT22;18385;51.572;6.578;2023-02-15T16:47:39;13.70;53.70
31677;DHT22;18385;51.572;6.578;2023-02-15T16:50:06;13.70;53.80
31677;DHT22;18385;51.572;6.578;2023-02-15T16:52:43;13.70;53.80
31677;DHT22;18385;51.572;6.578;2023-02-15T16:55:22;13.60;53.80
31677;DHT22;18385;51.572;6.578;2023-02-15T16:57:48;13.60;53.80
31677;DHT22;18385;51.572;6.578;2023-02-15T17:00:20;13.50;53.90
31677;DHT22;18385;51.572;6.578;2023-02-15T17:05:48;13.40;54.00
31677;DHT22;18385;51.572;6.578;2023-02-15T17:08:46;13.40;54.00
31677;DHT22;18385;51.572;6.578;2023-02-15T17:11:21;13.40;54.10
31677;DHT22;18385;51.572;6.578;2023-02-15T17:14:19;13.40;54.10
31677;DHT22;18385;51.572;6.578;2023-02-15T17:17:06;13.40;54.10
31677;DHT22;18385;51.572;6.578;2023-02-15T17:19:51;13.30;54.10
31677;DHT22;18385;51.572;6.578;2023-02-15T17:22:21;13.30;54.10
31677;DHT22;18385;51.572;6.578;2023-02-15T17:24:49;13.30;54.10
31677;DHT22;18385;51.572;6.578;2023-02-15T17:27:24;13.30;54.10
31677;DHT22;18385;51.572;6.578;2023-02-15T17:29:55;13.20;54.00
31677;DHT22;18385;51.572;6.578;2023-02-15T17:32:24;13.20;54.10
31677;DHT22;18385;51.572;6.578;2023-02-15T17:35:17;13.20;54.20
31677;DHT22;18385;51.572;6.578;2023-02-15T17:37:47;13.20;54.20
31677;DHT22;18385;51.572;6.578;2023-02-15T17:40:20;13.10;54.10
31677;DHT22;18385;51.572;6.578;2023-02-15T17:42:47;13.10;54.20
31677;DHT22;18385;51.572;6.578;2023-02-15T17:45:13;13.10;54.20
31677;DHT22;18385;51.572;6.578;2023-02-15T17:47:39;13.10;54.20
31677;DHT22;18385;51.572;6.578;2023-02-15T17:50:06;13.10;54.30
31677;DHT22;18385;51.572;6.578;2023-02-15T17:52:32;13.10;54.30
31677;DHT22;18385;51.572;6.578;2023-02-15T17:55:00;13.10;54.20
31677;DHT22;18385;51.572;6.578;2023-02-15T17:57:49;13.00;54.30
31677;DHT22;18385;51.572;6.578;2023-02-15T18:00:15;13.00;54.40
31677;DHT22;18385;51.572;6.578;2023-02-15T18:02:59;12.90;54.40
31677;DHT22;18385;51.572;6.578;2023-02-15T18:05:44;12.90;54.40
31677;DHT22;18385;51.572;6.578;2023-02-15T18:08:28;12.80;54.00
31677;DHT22;18385;51.572;6.578;2023-02-15T18:11:13;12.90;54.50
31677;DHT22;18385;51.572;6.578;2023-02-15T18:13:57;12.80;54.60
31677;DHT22;18385;51.572;6.578;2023-02-15T18:16:29;12.80;54.70
31677;DHT22;18385;51.572;6.578;2023-02-15T18:18:56;12.70;54.60
31677;DHT22;18385;51.572;6.578;2023-02-15T18:21:23;12.70;54.60
31677;DHT22;18385;51.572;6.578;2023-02-15T18:23:48;12.70;54.60
31677;DHT22;18385;51.572;6.578;2023-02-15T18:26:24;12.70;54.70
31677;DHT22;18385;51.572;6.578;2023-02-15T18:28:51;12.70;54.80
31677;DHT22;18385;51.572;6.578;2023-02-15T18:31:18;12.60;54.80
31677;DHT22;18385;51.572;6.578;2023-02-15T18:33:53;12.60;54.80
31677;DHT22;18385;51.572;6.578;2023-02-15T18:36:33;12.50;54.90
31677;DHT22;18385;51.572;6.578;2023-02-15T18:39:00;12.50;55.00
31677;DHT22;18385;51.572;6.578;2023-02-15T18:41:28;12.40;54.90
31677;DHT22;18385;51.572;6.578;2023-02-15T18:43:53;12.40;55.10
31677;DHT22;18385;51.572;6.578;2023-02-15T18:46:20;12.40;55.00
31677;DHT22;18385;51.572;6.578;2023-02-15T18:48:46;12.30;55.10
31677;DHT22;18385;51.572;6.578;2023-02-15T18:51:22;12.30;55.10
31677;DHT22;18385;51.572;6.578;2023-02-15T18:53:50;12.20;55.10
31677;DHT22;18385;51.572;6.578;2023-02-15T18:56:19;12.10;55.10
31677;DHT22;18385;51.572;6.578;2023-02-15T18:58:45;12.00;55.20
31677;DHT22;18385;51.572;6.578;2023-02-15T19:01:15;11.90;55.30
31677;DHT22;18385;51.572;6.578;2023-02-15T19:03:46;11.80;55.50